sensor_id;sensor_type;location;lat;lon;timestamp;temperature;humidity
27779;DHT22;30234;48.090;11.464;2023-08-07T00:00:12;11.90;99.90
27779;DHT22;30234;48.090;11.464;2023-08-07T00:04:13;11.80;99.90
27779;DHT22;30234;48.090;11.464;2023-08-07T00:08:14;11.70;99.90
27779;DHT22;30234;48.090;11.464;2023-08-07T00:12:15;11.70;99.90
27779;DHT22;30234;48.090;11.464;2023-08-07T00:16:16;11.70;99.90
27779;DHT22;30234;48.090;11.464;2023-08-07T00:20:17;11.60;99.90
27779;DHT22;30234;48.090;11.464;2023-08-07T00:24:18;11.50;99.90
27779;DHT22;30234;48.090;11.464;2023-08-07T00:28:19;11.40;99.90
27779;DHT22;30234;48.090;11.464;2023-08-07T00:32:20;11.30;99.90
27779;DHT22;30234;48.090;11.464;2023-08-07T00:36:21;11.40;99.90
27779;DHT22;30234;48.090;11.464;2023-08-07T00:40:21;11.40;99.90
27779;DHT22;30234;48.090;11.464;2023-08-07T00:44:22;11.30;99.90
27779;DHT22;30234;48.090;11.464;2023-08-07T00:48:24;11.20;99.90
27779;DHT22;30234;48.090;11.464;2023-08-07T00:52:25;11.10;99.90
27779;DHT22;30234;48.090;11.464;2023-08-07T00:56:26;10.80;99.90
27779;DHT22;30234;48.090;11.464;2023-08-07T01:00:29;10.60;99.90
27779;DHT22;30234;48.090;11.464;2023-08-07T01:04:31;10.50;99.90
27779;DHT22;30234;48.090;11.464;2023-08-07T01:08:32;10.30;99.90
27779;DHT22;30234;48.090;11.464;2023-08-07T01:12:38;10.20;99.90
27779;DHT22;30234;48.090;11.464;2023-08-07T01:17:01;10.20;99.90
27779;DHT22;30234;48.090;11.464;2023-08-07T01:21:06;10.10;99.90
27779;DHT22;30234;48.090;11.464;2023-08-07T01:25:17;10.10;99.90
27779;DHT22;30234;48.090;11.464;2023-08-07T01:29:26;10.00;99.90
27779;DHT22;30234;48.090;11.464;2023-08-07T01:34:02;10.00;99.90
27779;DHT22;30234;48.090;11.464;2023-08-07T01:38:05;9.90;99.90
27779;DHT22;30234;48.090;11.464;2023-08-07T01:42:07;9.80;99.90
27779;DHT22;30234;48.090;11.464;2023-08-07T01:46:07;9.80;99.90
27779;DHT22;30234;48.090;11.464;2023-08-07T01:50:08;9.70;99.90
27779;DHT22;30234;48.090;11.464;2023-08-07T01:54:09;9.70;99.90
27779;DHT22;30234;48.090;11.464;2023-08-07T01:58:10;9.70;99.90
27779;DHT22;30234;48.090;11.464;2023-08-07T02:02:11;9.60;99.90
27779;DHT22;30234;48.090;11.464;2023-08-07T02:06:12;9.60;99.90
27779;DHT22;30234;48.090;11.464;2023-08-07T02:10:13;9.60;99.90
27779;DHT22;30234;48.090;11.464;2023-08-07T02:14:14;9.50;99.90
27779;DHT22;30234;48.090;11.464;2023-08-07T02:18:14;9.60;99.90
27779;DHT22;30234;48.090;11.464;2023-08-07T02:22:15;9.60;99.90
27779;DHT22;30234;48.090;11.464;2023-08-07T02:26:16;9.60;99.90
27779;DHT22;30234;48.090;11.464;2023-08-07T02:30:17;9.60;99.90
27779;DHT22;30234;48.090;11.464;2023-08-07T02:34:18;9.60;99.90
27779;DHT22;30234;48.090;11.464;2023-08-07T02:38:19;9.70;99.90
27779;DHT22;30234;48.090;11.464;2023-08-07T02:42:20;9.70;99.90
27779;DHT22;30234;48.090;11.464;2023-08-07T02:46:20;9.70;99.90
27779;DHT22;30234;48.090;11.464;2023-08-07T02:50:21;9.70;99.90
27779;DHT22;30234;48.090;11.464;2023-08-07T02:54:22;9.70;99.90
27779;DHT22;30234;48.090;11.464;2023-08-07T02:58:23;9.80;99.90
27779;DHT22;30234;48.090;11.464;2023-08-07T03:02:24;9.80;99.90
27779;DHT22;30234;48.090;11.464;2023-08-07T03:06:25;9.90;99.90
27779;DHT22;30234;48.090;11.464;2023-08-07T03:10:26;10.10;99.90
27779;DHT22;30234;48.090;11.464;2023-08-07T03:14:27;10.10;99.90
27779;DHT22;30234;48.090;11.464;2023-08-07T03:18:31;10.20;99.90
27779;DHT22;30234;48.090;11.464;2023-08-07T03:22:32;10.30;99.90
27779;DHT22;30234;48.090;11.464;2023-08-07T03:26:33;10.40;99.90
27779;DHT22;30234;48.090;11.464;2023-08-07T03:30:34;10.50;99.90
27779;DHT22;30234;48.090;11.464;2023-08-07T03:34:35;10.60;99.90
27779;DHT22;30234;48.090;11.464;2023-08-07T03:38:35;10.70;99.90
27779;DHT22;30234;48.090;11.464;2023-08-07T03:42:36;10.70;99.90
27779;DHT22;30234;48.090;11.464;2023-08-07T03:46:37;10.70;99.90
27779;DHT22;30234;48.090;11.464;2023-08-07T03:50:38;10.70;99.90
27779;DHT22;30234;48.090;11.464;2023-08-07T03:54:39;10.80;99.90
27779;DHT22;30234;48.090;11.464;2023-08-07T03:58:41;10.80;99.90
27779;DHT22;30234;48.090;11.464;2023-08-07T04:02:42;10.80;99.90
27779;DHT22;30234;48.090;11.464;2023-08-07T04:06:43;10.80;99.90
27779;DHT22;30234;48.090;11.464;2023-08-07T04:10:44;10.90;99.90
27779;DHT22;30234;48.090;11.464;2023-08-07T04:14:45;10.90;99.90
27779;DHT22;30234;48.090;11.464;2023-08-07T04:18:46;10.90;99.90
27779;DHT22;30234;48.090;11.464;2023-08-07T04:22:47;10.90;99.90
27779;DHT22;30234;48.090;11.464;2023-08-07T04:26:48;10.90;99.90
27779;DHT22;30234;48.090;11.464;2023-08-07T04:30:50;10.90;99.90
27779;DHT22;30234;48.090;11.464;2023-08-07T04:34:51;10.90;99.90
27779;DHT22;30234;48.090;11.464;2023-08-07T04:38:52;11.00;99.90
27779;DHT22;30234;48.090;11.464;2023-08-07T04:42:56;11.00;99.90
27779;DHT22;30234;48.090;11.464;2023-08-07T04:46:57;11.00;99.90
27779;DHT22;30234;48.090;11.464;2023-08-07T04:50:58;11.10;99.90
27779;DHT22;30234;48.090;11.464;2023-08-07T04:54:59;11.20;99.90
27779;DHT22;30234;48.090;11.464;2023-08-07T04:59:00;11.30;99.90
27779;DHT22;30234;48.090;11.464;2023-08-07T05:03:02;11.50;99.90
27779;DHT22;30234;48.090;11.464;2023-08-07T05:07:03;11.50;99.90
27779;DHT22;30234;48.090;11.464;2023-08-07T05:11:04;11.50;99.90
27779;DHT22;30234;48.090;11.464;2023-08-07T05:15:05;11.50;99.90
27779;DHT22;30234;48.090;11.464;2023-08-07T05:19:06;11.60;99.90
27779;DHT22;30234;48.090;11.464;2023-08-07T05:23:08;11.60;99.90
27779;DHT22;30234;48.090;11.464;2023-08-07T05:27:09;11.60;99.90
27779;DHT22;30234;48.090;11.464;2023-08-07T05:31:10;11.60;99.90
27779;DHT22;30234;48.090;11.464;2023-08-07T05:35:10;11.50;99.90
27779;DHT22;30234;48.090;11.464;2023-08-07T05:39:11;11.40;99.90
27779;DHT22;30234;48.090;11.464;2023-08-07T05:43:12;11.40;99.90
27779;DHT22;30234;48.090;11.464;2023-08-07T05:47:13;11.40;99.90
27779;DHT22;30234;48.090;11.464;2023-08-07T05:51:14;11.40;99.90
27779;DHT22;30234;48.090;11.464;2023-08-07T05:55:15;11.50;99.90
27779;DHT22;30234;48.090;11.464;2023-08-07T05:59:16;11.50;99.90
27779;DHT22;30234;48.090;11.464;2023-08-07T06:03:17;11.40;99.90
27779;DHT22;30234;48.090;11.464;2023-08-07T06:07:17;11.50;99.90
27779;DHT22;30234;48.090;11.464;2023-08-07T06:11:18;11.80;99.90
27779;DHT22;30234;48.090;11.464;2023-08-07T06:15:20;12.50;99.90
27779;DHT22;30234;48.090;11.464;2023-08-07T06:19:20;12.90;99.90
27779;DHT22;30234;48.090;11.464;2023-08-07T06:23:23;12.70;99.90
27779;DHT22;30234;48.090;11.464;2023-08-07T06:27:23;12.80;99.90
27779;DHT22;30234;48.090;11.464;2023-08-07T06:31:24;12.50;99.90
27779;DHT22;30234;48.090;11.464;2023-08-07T06:35:25;12.70;99.90
27779;DHT22;30234;48.090;11.464;2023-08-07T06:39:26;13.00;99.90
27779;DHT22;30234;48.090;11.464;2023-08-07T06:43:27;12.90;99.90
27779;DHT22;30234;48.090;11.464;2023-08-07T06:47:28;13.70;99.90
27779;DHT22;30234;48.090;11.464;2023-08-07T06:51:29;13.90;99.90
27779;DHT22;30234;48.090;11.464;2023-08-07T06:55:30;13.60;99.90
27779;DHT22;30234;48.090;11.464;2023-08-07T06:59:30;14.90;99.90
27779;DHT22;30234;48.090;11.464;2023-08-07T07:03:31;15.30;99.90
27779;DHT22;30234;48.090;11.464;2023-08-07T07:07:32;17.10;99.90
27779;DHT22;30234;48.090;11.464;2023-08-07T07:11:34;16.80;99.90
27779;DHT22;30234;48.090;11.464;2023-08-07T07:15:35;16.00;99.90
27779;DHT22;30234;48.090;11.464;2023-08-07T07:19:36;15.20;99.90
27779;DHT22;30234;48.090;11.464;2023-08-07T07:23:37;15.40;99.90
27779;DHT22;30234;48.090;11.464;2023-08-07T07:27:39;15.80;99.90
27779;DHT22;30234;48.090;11.464;2023-08-07T07:31:40;16.20;99.90
27779;DHT22;30234;48.090;11.464;2023-08-07T07:35:41;15.50;99.90
27779;DHT22;30234;48.090;11.464;2023-08-07T07:39:41;15.80;99.90
27779;DHT22;30234;48.090;11.464;2023-08-07T07:43:42;15.70;99.90
27779;DHT22;30234;48.090;11.464;2023-08-07T07:47:43;15.30;99.90
27779;DHT22;30234;48.090;11.464;2023-08-07T07:51:44;14.90;99.90
27779;DHT22;30234;48.090;11.464;2023-08-07T07:55:47;14.70;99.90
27779;DHT22;30234;48.090;11.464;2023-08-07T07:59:48;14.50;99.90
27779;DHT22;30234;48.090;11.464;2023-08-07T08:03:49;14.40;99.90
27779;DHT22;30234;48.090;11.464;2023-08-07T08:07:50;14.50;99.90
27779;DHT22;30234;48.090;11.464;2023-08-07T08:11:51;15.00;99.90
27779;DHT22;30234;48.090;11.464;2023-08-07T08:15:52;15.10;99.90
27779;DHT22;30234;48.090;11.464;2023-08-07T08:19:54;15.50;99.90
27779;DHT22;30234;48.090;11.464;2023-08-07T08:23:54;15.30;99.90
27779;DHT22;30234;48.090;11.464;2023-08-07T08:27:55;15.20;99.90
27779;DHT22;30234;48.090;11.464;2023-08-07T08:31:56;14.70;99.90
27779;DHT22;30234;48.090;11.464;2023-08-07T08:35:57;14.40;99.90
27779;DHT22;30234;48.090;11.464;2023-08-07T08:39:58;14.40;99.90
27779;DHT22;30234;48.090;11.464;2023-08-07T08:43:59;14.80;99.90
27779;DHT22;30234;48.090;11.464;2023-08-07T08:48:03;15.00;99.90
27779;DHT22;30234;48.090;11.464;2023-08-07T08:52:05;14.80;99.90
27779;DHT22;30234;48.090;11.464;2023-08-07T08:56:07;14.80;99.90
27779;DHT22;30234;48.090;11.464;2023-08-07T09:00:09;14.40;99.90
27779;DHT22;30234;48.090;11.464;2023-08-07T09:04:21;14.90;99.90
27779;DHT22;30234;48.090;11.464;2023-08-07T09:08:22;15.10;99.90
27779;DHT22;30234;48.090;11.464;2023-08-07T09:12:32;15.10;99.90
27779;DHT22;30234;48.090;11.464;2023-08-07T09:16:34;15.40;99.90
27779;DHT22;30234;48.090;11.464;2023-08-07T09:20:36;15.50;99.90
27779;DHT22;30234;48.090;11.464;2023-08-07T09:24:40;15.90;99.90
27779;DHT22;30234;48.090;11.464;2023-08-07T09:28:40;15.10;99.90
27779;DHT22;30234;48.090;11.464;2023-08-07T09:32:42;14.50;99.90
27779;DHT22;30234;48.090;11.464;2023-08-07T09:36:42;14.80;99.90
27779;DHT22;30234;48.090;11.464;2023-08-07T09:40:43;15.00;99.90
27779;DHT22;30234;48.090;11.464;2023-08-07T09:44:44;15.80;99.90
27779;DHT22;30234;48.090;11.464;2023-08-07T09:48:49;16.30;99.90
27779;DHT22;30234;48.090;11.464;2023-08-07T09:52:50;16.40;99.90
27779;DHT22;30234;48.090;11.464;2023-08-07T09:56:55;15.90;99.90
27779;DHT22;30234;48.090;11.464;2023-08-07T10:00:59;15.30;99.90
27779;DHT22;30234;48.090;11.464;2023-08-07T10:05:01;15.40;99.90
27779;DHT22;30234;48.090;11.464;2023-08-07T10:09:05;16.30;99.90
27779;DHT22;30234;48.090;11.464;2023-08-07T10:13:08;16.90;99.90
27779;DHT22;30234;48.090;11.464;2023-08-07T10:17:09;17.20;99.90
27779;DHT22;30234;48.090;11.464;2023-08-07T10:21:11;16.80;99.90
27779;DHT22;30234;48.090;11.464;2023-08-07T10:25:12;17.10;99.90
27779;DHT22;30234;48.090;11.464;2023-08-07T10:29:15;17.70;99.90
27779;DHT22;30234;48.090;11.464;2023-08-07T10:33:18;18.60;99.90
27779;DHT22;30234;48.090;11.464;2023-08-07T10:37:42;18.90;99.90
27779;DHT22;30234;48.090;11.464;2023-08-07T10:42:03;17.70;99.90
27779;DHT22;30234;48.090;11.464;2023-08-07T10:46:06;16.30;99.90
27779;DHT22;30234;48.090;11.464;2023-08-07T10:50:11;16.30;99.90
27779;DHT22;30234;48.090;11.464;2023-08-07T10:54:12;17.00;99.90
27779;DHT22;30234;48.090;11.464;2023-08-07T11:02:30;17.50;99.90
27779;DHT22;30234;48.090;11.464;2023-08-07T11:06:33;17.30;99.90
27779;DHT22;30234;48.090;11.464;2023-08-07T11:10:34;17.60;99.90
27779;DHT22;30234;48.090;11.464;2023-08-07T11:14:35;19.20;99.90
27779;DHT22;30234;48.090;11.464;2023-08-07T11:18:37;19.60;99.90
27779;DHT22;30234;48.090;11.464;2023-08-07T11:22:42;18.40;99.90
27779;DHT22;30234;48.090;11.464;2023-08-07T11:26:47;17.40;99.90
27779;DHT22;30234;48.090;11.464;2023-08-07T11:30:50;17.60;99.90
27779;DHT22;30234;48.090;11.464;2023-08-07T11:34:52;19.30;99.90
27779;DHT22;30234;48.090;11.464;2023-08-07T11:38:53;19.70;99.90
27779;DHT22;30234;48.090;11.464;2023-08-07T11:42:53;19.30;99.90
27779;DHT22;30234;48.090;11.464;2023-08-07T11:46:55;19.80;99.90
27779;DHT22;30234;48.090;11.464;2023-08-07T11:50:57;19.40;99.90
27779;DHT22;30234;48.090;11.464;2023-08-07T11:54:58;18.60;99.90
27779;DHT22;30234;48.090;11.464;2023-08-07T11:59:03;17.50;99.90
27779;DHT22;30234;48.090;11.464;2023-08-07T12:03:29;16.50;99.90
27779;DHT22;30234;48.090;11.464;2023-08-07T12:07:32;15.90;99.90
27779;DHT22;30234;48.090;11.464;2023-08-07T12:11:32;16.00;99.90
27779;DHT22;30234;48.090;11.464;2023-08-07T12:15:33;16.90;99.90
27779;DHT22;30234;48.090;11.464;2023-08-07T12:19:38;16.90;99.90
27779;DHT22;30234;48.090;11.464;2023-08-07T12:23:39;16.40;99.90
27779;DHT22;30234;48.090;11.464;2023-08-07T12:27:40;16.50;99.90
27779;DHT22;30234;48.090;11.464;2023-08-07T12:31:40;17.30;99.90
27779;DHT22;30234;48.090;11.464;2023-08-07T12:35:41;18.10;99.90
27779;DHT22;30234;48.090;11.464;2023-08-07T12:39:42;19.00;99.90
27779;DHT22;30234;48.090;11.464;2023-08-07T12:43:43;19.20;99.90
27779;DHT22;30234;48.090;11.464;2023-08-07T12:47:45;18.90;99.90
27779;DHT22;30234;48.090;11.464;2023-08-07T12:51:46;18.30;99.90
27779;DHT22;30234;48.090;11.464;2023-08-07T12:55:47;17.70;99.90
27779;DHT22;30234;48.090;11.464;2023-08-07T12:59:47;17.70;99.90
27779;DHT22;30234;48.090;11.464;2023-08-07T13:03:48;17.70;99.90
27779;DHT22;30234;48.090;11.464;2023-08-07T13:07:49;17.80;99.90
27779;DHT22;30234;48.090;11.464;2023-08-07T13:11:54;18.30;99.90
27779;DHT22;30234;48.090;11.464;2023-08-07T13:15:55;18.50;99.60
27779;DHT22;30234;48.090;11.464;2023-08-07T13:19:55;18.70;99.90
27779;DHT22;30234;48.090;11.464;2023-08-07T13:23:56;19.10;99.30
27779;DHT22;30234;48.090;11.464;2023-08-07T13:27:57;20.00;98.00
27779;DHT22;30234;48.090;11.464;2023-08-07T13:31:59;20.40;95.70
27779;DHT22;30234;48.090;11.464;2023-08-07T13:35:59;19.90;93.90
27779;DHT22;30234;48.090;11.464;2023-08-07T13:40:00;19.00;95.00
27779;DHT22;30234;48.090;11.464;2023-08-07T13:44:01;18.20;96.00
27779;DHT22;30234;48.090;11.464;2023-08-07T13:48:02;17.50;97.80
27779;DHT22;30234;48.090;11.464;2023-08-07T13:52:04;17.00;98.80
27779;DHT22;30234;48.090;11.464;2023-08-07T13:56:05;17.40;98.30
27779;DHT22;30234;48.090;11.464;2023-08-07T14:00:08;17.90;96.90
27779;DHT22;30234;48.090;11.464;2023-08-07T14:04:09;18.30;97.00
27779;DHT22;30234;48.090;11.464;2023-08-07T14:08:10;18.70;93.80
27779;DHT22;30234;48.090;11.464;2023-08-07T14:12:11;18.50;94.30
27779;DHT22;30234;48.090;11.464;2023-08-07T14:16:12;18.70;92.80
27779;DHT22;30234;48.090;11.464;2023-08-07T14:20:13;19.30;93.90
27779;DHT22;30234;48.090;11.464;2023-08-07T14:24:14;19.00;93.40
27779;DHT22;30234;48.090;11.464;2023-08-07T14:28:17;18.40;95.50
27779;DHT22;30234;48.090;11.464;2023-08-07T14:32:18;17.30;97.40
27779;DHT22;30234;48.090;11.464;2023-08-07T14:36:19;17.00;98.20
27779;DHT22;30234;48.090;11.464;2023-08-07T14:40:20;16.90;98.80
27779;DHT22;30234;48.090;11.464;2023-08-07T14:44:21;17.00;98.70
27779;DHT22;30234;48.090;11.464;2023-08-07T14:48:22;17.00;99.50
27779;DHT22;30234;48.090;11.464;2023-08-07T14:52:23;16.80;99.90
27779;DHT22;30234;48.090;11.464;2023-08-07T14:56:23;16.40;99.90
27779;DHT22;30234;48.090;11.464;2023-08-07T15:00:24;16.20;99.90
27779;DHT22;30234;48.090;11.464;2023-08-07T15:04:25;16.40;99.90
27779;DHT22;30234;48.090;11.464;2023-08-07T15:08:26;16.90;99.90
27779;DHT22;30234;48.090;11.464;2023-08-07T15:12:27;17.00;99.90
27779;DHT22;30234;48.090;11.464;2023-08-07T15:16:28;17.10;99.90
27779;DHT22;30234;48.090;11.464;2023-08-07T15:20:29;17.20;99.90
27779;DHT22;30234;48.090;11.464;2023-08-07T15:24:31;16.90;99.90
27779;DHT22;30234;48.090;11.464;2023-08-07T15:28:31;17.20;99.90
27779;DHT22;30234;48.090;11.464;2023-08-07T15:32:33;18.10;99.90
27779;DHT22;30234;48.090;11.464;2023-08-07T15:36:33;18.30;99.90
27779;DHT22;30234;48.090;11.464;2023-08-07T15:40:34;17.80;99.90
27779;DHT22;30234;48.090;11.464;2023-08-07T15:44:38;17.80;99.90
27779;DHT22;30234;48.090;11.464;2023-08-07T15:48:39;17.50;99.90
27779;DHT22;30234;48.090;11.464;2023-08-07T15:52:40;17.00;99.90
27779;DHT22;30234;48.090;11.464;2023-08-07T15:56:41;16.40;99.90
27779;DHT22;30234;48.090;11.464;2023-08-07T16:00:42;16.20;99.90
27779;DHT22;30234;48.090;11.464;2023-08-07T16:04:43;16.10;99.90
27779;DHT22;30234;48.090;11.464;2023-08-07T16:08:43;16.00;99.90
27779;DHT22;30234;48.090;11.464;2023-08-07T16:12:44;16.10;99.90
27779;DHT22;30234;48.090;11.464;2023-08-07T16:17:04;16.20;99.90
27779;DHT22;30234;48.090;11.464;2023-08-07T16:21:05;16.00;99.90
27779;DHT22;30234;48.090;11.464;2023-08-07T16:25:24;15.70;99.90
27779;DHT22;30234;48.090;11.464;2023-08-07T16:29:44;15.00;99.90
27779;DHT22;30234;48.090;11.464;2023-08-07T16:33:57;14.50;99.90
27779;DHT22;30234;48.090;11.464;2023-08-07T16:37:58;14.20;99.90
27779;DHT22;30234;48.090;11.464;2023-08-07T16:41:59;14.00;99.90
27779;DHT22;30234;48.090;11.464;2023-08-07T16:46:00;14.10;99.90
27779;DHT22;30234;48.090;11.464;2023-08-07T16:50:01;14.50;99.90
27779;DHT22;30234;48.090;11.464;2023-08-07T16:54:02;14.70;99.90
27779;DHT22;30234;48.090;11.464;2023-08-07T16:58:03;14.90;99.90
27779;DHT22;30234;48.090;11.464;2023-08-07T17:02:05;14.80;99.90
27779;DHT22;30234;48.090;11.464;2023-08-07T17:06:07;14.60;99.90
27779;DHT22;30234;48.090;11.464;2023-08-07T17:10:08;14.50;99.90
27779;DHT22;30234;48.090;11.464;2023-08-07T17:14:13;14.80;99.90
27779;DHT22;30234;48.090;11.464;2023-08-07T17:18:14;14.80;99.90
27779;DHT22;30234;48.090;11.464;2023-08-07T17:22:15;14.70;99.90
27779;DHT22;30234;48.090;11.464;2023-08-07T17:26:16;14.50;99.90
27779;DHT22;30234;48.090;11.464;2023-08-07T17:30:17;14.60;99.90
27779;DHT22;30234;48.090;11.464;2023-08-07T17:34:18;14.50;99.90
27779;DHT22;30234;48.090;11.464;2023-08-07T17:38:19;14.60;99.90
27779;DHT22;30234;48.090;11.464;2023-08-07T17:42:20;14.50;99.90
27779;DHT22;30234;48.090;11.464;2023-08-07T17:46:21;14.50;99.90
27779;DHT22;30234;48.090;11.464;2023-08-07T17:50:22;14.50;99.90
27779;DHT22;30234;48.090;11.464;2023-08-07T17:54:23;14.30;99.90
27779;DHT22;30234;48.090;11.464;2023-08-07T17:58:23;13.90;99.90
27779;DHT22;30234;48.090;11.464;2023-08-07T18:02:24;13.60;99.90
27779;DHT22;30234;48.090;11.464;2023-08-07T18:06:28;13.60;99.90
27779;DHT22;30234;48.090;11.464;2023-08-07T18:10:29;13.70;99.90
27779;DHT22;30234;48.090;11.464;2023-08-07T18:14:33;13.70;99.90
27779;DHT22;30234;48.090;11.464;2023-08-07T18:18:34;13.70;99.90
27779;DHT22;30234;48.090;11.464;2023-08-07T18:22:36;13.60;99.90
27779;DHT22;30234;48.090;11.464;2023-08-07T18:26:36;13.50;99.90
27779;DHT22;30234;48.090;11.464;2023-08-07T18:30:37;13.40;99.90
27779;DHT22;30234;48.090;11.464;2023-08-07T18:34:38;13.20;99.90
27779;DHT22;30234;48.090;11.464;2023-08-07T18:38:39;13.10;99.90
27779;DHT22;30234;48.090;11.464;2023-08-07T18:42:40;13.10;99.90
27779;DHT22;30234;48.090;11.464;2023-08-07T18:46:41;13.20;99.90
27779;DHT22;30234;48.090;11.464;2023-08-07T18:50:42;13.10;99.90
27779;DHT22;30234;48.090;11.464;2023-08-07T18:54:43;13.00;99.90
27779;DHT22;30234;48.090;11.464;2023-08-07T18:58:45;13.00;99.90
27779;DHT22;30234;48.090;11.464;2023-08-07T19:02:46;12.90;99.90
27779;DHT22;30234;48.090;11.464;2023-08-07T19:06:46;12.90;99.90
27779;DHT22;30234;48.090;11.464;2023-08-07T19:10:47;12.90;99.90
27779;DHT22;30234;48.090;11.464;2023-08-07T19:14:48;12.80;99.90
27779;DHT22;30234;48.090;11.464;2023-08-07T19:18:49;12.80;99.90
27779;DHT22;30234;48.090;11.464;2023-08-07T19:22:50;12.80;99.90
27779;DHT22;30234;48.090;11.464;2023-08-07T19:26:51;12.70;99.90
27779;DHT22;30234;48.090;11.464;2023-08-07T19:30:52;12.70;99.90
27779;DHT22;30234;48.090;11.464;2023-08-07T19:34:53;12.70;99.90
27779;DHT22;30234;48.090;11.464;2023-08-07T19:38:54;12.60;99.90
27779;DHT22;30234;48.090;11.464;2023-08-07T19:42:54;12.60;99.90
27779;DHT22;30234;48.090;11.464;2023-08-07T19:46:55;12.60;99.90
27779;DHT22;30234;48.090;11.464;2023-08-07T19:50:56;12.60;99.90
27779;DHT22;30234;48.090;11.464;2023-08-07T19:54:57;12.60;99.90
27779;DHT22;30234;48.090;11.464;2023-08-07T19:58:58;12.40;99.90
27779;DHT22;30234;48.090;11.464;2023-08-07T20:02:59;12.20;99.90
27779;DHT22;30234;48.090;11.464;2023-08-07T20:07:00;12.10;99.90
27779;DHT22;30234;48.090;11.464;2023-08-07T20:11:04;12.00;99.90
27779;DHT22;30234;48.090;11.464;2023-08-07T20:15:05;11.90;99.90
27779;DHT22;30234;48.090;11.464;2023-08-07T20:19:07;11.80;99.90
27779;DHT22;30234;48.090;11.464;2023-08-07T20:23:08;11.70;99.90
27779;DHT22;30234;48.090;11.464;2023-08-07T20:27:09;11.50;99.90
27779;DHT22;30234;48.090;11.464;2023-08-07T20:31:10;11.50;99.90
27779;DHT22;30234;48.090;11.464;2023-08-07T20:35:10;11.40;99.90
27779;DHT22;30234;48.090;11.464;2023-08-07T20:39:13;11.40;99.90
27779;DHT22;30234;48.090;11.464;2023-08-07T20:43:14;11.40;99.90
27779;DHT22;30234;48.090;11.464;2023-08-07T20:47:16;11.50;99.90
27779;DHT22;30234;48.090;11.464;2023-08-07T20:51:17;11.80;99.90
27779;DHT22;30234;48.090;11.464;2023-08-07T20:55:18;11.90;99.90
27779;DHT22;30234;48.090;11.464;2023-08-07T20:59:19;12.10;99.90
27779;DHT22;30234;48.090;11.464;2023-08-07T21:03:20;12.10;99.90
27779;DHT22;30234;48.090;11.464;2023-08-07T21:07:21;12.20;99.90
27779;DHT22;30234;48.090;11.464;2023-08-07T21:11:23;12.20;99.90
27779;DHT22;30234;48.090;11.464;2023-08-07T21:15:28;12.10;99.90
27779;DHT22;30234;48.090;11.464;2023-08-07T21:19:29;12.00;99.90
27779;DHT22;30234;48.090;11.464;2023-08-07T21:23:32;11.90;99.90
27779;DHT22;30234;48.090;11.464;2023-08-07T21:27:33;11.90;99.90
27779;DHT22;30234;48.090;11.464;2023-08-07T21:31:36;12.10;99.90
27779;DHT22;30234;48.090;11.464;2023-08-07T21:35:37;12.30;99.90
27779;DHT22;30234;48.090;11.464;2023-08-07T21:39:37;12.30;99.90
27779;DHT22;30234;48.090;11.464;2023-08-07T21:43:38;12.20;99.90
27779;DHT22;30234;48.090;11.464;2023-08-07T21:47:40;12.00;99.90
27779;DHT22;30234;48.090;11.464;2023-08-07T21:51:43;12.00;99.90
27779;DHT22;30234;48.090;11.464;2023-08-07T21:55:44;12.00;99.90
27779;DHT22;30234;48.090;11.464;2023-08-07T21:59:45;12.10;99.90
27779;DHT22;30234;48.090;11.464;2023-08-07T22:03:45;12.20;99.90
27779;DHT22;30234;48.090;11.464;2023-08-07T22:07:46;12.20;99.90
27779;DHT22;30234;48.090;11.464;2023-08-07T22:11:47;12.30;99.90
27779;DHT22;30234;48.090;11.464;2023-08-07T22:15:48;12.30;99.90
27779;DHT22;30234;48.090;11.464;2023-08-07T22:19:50;12.20;99.90
27779;DHT22;30234;48.090;11.464;2023-08-07T22:23:51;12.30;99.90
27779;DHT22;30234;48.090;11.464;2023-08-07T22:27:52;12.30;99.90
27779;DHT22;30234;48.090;11.464;2023-08-07T22:31:53;12.20;99.90
27779;DHT22;30234;48.090;11.464;2023-08-07T22:35:54;12.20;99.90
27779;DHT22;30234;48.090;11.464;2023-08-07T22:39:55;12.10;99.90
27779;DHT22;30234;48.090;11.464;2023-08-07T22:43:56;12.00;99.90
27779;DHT22;30234;48.090;11.464;2023-08-07T22:47:56;11.90;99.90
27779;DHT22;30234;48.090;11.464;2023-08-07T22:51:57;11.50;99.90
27779;DHT22;30234;48.090;11.464;2023-08-07T22:55:58;11.20;99.90
27779;DHT22;30234;48.090;11.464;2023-08-07T22:59:59;11.00;99.90
27779;DHT22;30234;48.090;11.464;2023-08-07T23:04:00;10.80;99.90
27779;DHT22;30234;48.090;11.464;2023-08-07T23:08:01;10.70;99.90
27779;DHT22;30234;48.090;11.464;2023-08-07T23:12:02;10.60;99.90
27779;DHT22;30234;48.090;11.464;2023-08-07T23:16:03;10.70;99.90
27779;DHT22;30234;48.090;11.464;2023-08-07T23:20:06;10.60;99.90
27779;DHT22;30234;48.090;11.464;2023-08-07T23:24:08;10.60;99.90
27779;DHT22;30234;48.090;11.464;2023-08-07T23:28:09;10.50;99.90
27779;DHT22;30234;48.090;11.464;2023-08-07T23:32:10;10.40;99.90
27779;DHT22;30234;48.090;11.464;2023-08-07T23:36:11;10.50;99.90
27779;DHT22;30234;48.090;11.464;2023-08-07T23:40:11;10.60;99.90
27779;DHT22;30234;48.090;11.464;2023-08-07T23:44:12;10.50;99.90
27779;DHT22;30234;48.090;11.464;2023-08-07T23:48:13;10.50;99.90
27779;DHT22;30234;48.090;11.464;2023-08-07T23:52:14;10.60;99.90
27779;DHT22;30234;48.090;11.464;2023-08-07T23:56:15;10.60;99.90
